Time;durP1;ratioP1;P1;durP2;ratioP2;P2;SDS_P1;SDS_P2;PMS_P1;PMS_P2;Temp;Humidity;BMP_temperature;BMP_pressure;BME280_temperature;BME280_humidity;BME280_pressure;Samples;Min_cycle;Max_cycle;Signal;HPM_P1;HPM_P2
2023/02/24 00:01:38;;;;;;;;;;;;;;;;;;;;;
2023/02/24 00:04:51;;;;;;;34.00;19.40;;;;;;;-4.14;65.79;101848.87;108551;1254;61826;-95
2023/02/24 00:07:28;;;;;;;36.10;19.20;;;;;;;-4.13;65.65;101840.05;108923;1254;74294;-94
2023/02/24 00:10:24;;;;;;;34.60;20.40;;;;;;;-4.13;65.53;101847.21;109689;1254;60234;-94
2023/02/24 00:13:10;;;;;;;37.70;19.20;;;;;;;-4.12;65.42;101845.16;109683;1254;60293;-93
2023/02/24 00:16:53;;;;;;;34.60;17.60;;;;;;;-4.13;65.25;101849.25;109511;1250;74431;31
2023/02/24 00:20:19;;;;;;;29.50;16.40;;;;;;;-4.12;65.22;101847.21;108679;1267;63244;-94
2023/02/24 00:23:40;;;;;;;31.20;16.80;;;;;;;-4.09;65.15;101844.70;108765;1266;73781;-93
2023/02/24 00:26:30;;;;;;;22.10;13.20;;;;;;;-4.06;65.21;101836.41;108652;1265;62020;-92
2023/02/24 00:32:03;;;;;;;35.90;18.30;;;;;;;-3.98;65.21;101830.25;105931;1278;611374;-95
2023/02/24 00:34:56;;;;;;;27.10;14.70;;;;;;;-3.90;65.01;101817.92;107596;1267;59196;-93
2023/02/24 00:37:59;;;;;;;26.40;14.70;;;;;;;-3.88;64.74;101812.15;108696;1268;60769;-92
2023/02/24 00:40:51;;;;;;;28.10;15.00;;;;;;;-3.87;64.34;101814.05;109119;1262;73516;-92
2023/02/24 00:43:19;;;;;;;26.50;13.60;;;;;;;-3.87;64.09;101810.80;108199;1256;816215;-92
2023/02/24 00:46:10;;;;;;;23.90;13.20;;;;;;;-3.93;63.95;101795.66;108306;1256;71846;-95
2023/02/24 00:48:46;;;;;;;25.00;12.30;;;;;;;-3.95;63.95;101796.83;107670;1259;59359;-96
2023/02/24 11:55:19;;;;;;;9.00;6.50;;;;;;;5.54;45.51;101091.74;106309;1289;599268;-85
2023/02/24 11:57:50;;;;;;;8.90;5.80;;;;;;;5.54;45.86;101089.86;108022;1260;59486;-86
2023/02/24 12:00:27;;;;;;;8.70;5.50;;;;;;;5.58;46.12;101090.58;107765;1260;60010;-85
2023/02/24 12:03:24;;;;;;;11.30;7.30;;;;;;;5.55;46.07;101084.10;107164;1260;71973;-85
2023/02/24 12:05:56;;;;;;;12.00;6.10;;;;;;;5.40;46.55;101083.01;106040;1265;63828;-85
2023/02/24 12:08:36;;;;;;;8.10;4.80;;;;;;;5.25;46.94;101074.10;105625;1257;775844;-85
2023/02/24 12:11:31;;;;;;;11.20;6.50;;;;;;;5.07;47.52;101064.59;106266;1259;60642;-86
2023/02/24 12:14:24;;;;;;;9.70;7.00;;;;;;;4.86;48.30;101061.76;106574;1257;59656;-85
2023/02/24 12:17:31;;;;;;;9.70;5.80;;;;;;;4.67;49.39;101055.36;106336;1260;73308;-86
2023/02/24 12:20:12;;;;;;;14.50;7.80;;;;;;;4.50;49.68;101052.73;106306;1260;62676;-86
2023/02/24 12:22:54;;;;;;;10.60;6.80;;;;;;;4.39;49.95;101051.14;106585;1258;73449;-85
2023/02/24 12:25:28;;;;;;;9.10;5.80;;;;;;;4.31;50.23;101049.25;106842;1253;59609;-86
2023/02/24 12:28:17;;;;;;;16.20;8.50;;;;;;;4.20;50.64;101044.90;106971;1251;60289;-87
2023/02/24 12:31:22;;;;;;;13.90;7.40;;;;;;;4.03;51.10;101037.38;106963;1250;73244;-86
2023/02/24 12:34:11;;;;;;;13.50;8.00;;;;;;;3.91;51.42;101037.87;107012;1254;64862;-85
2023/02/24 12:36:42;;;;;;;13.80;8.20;;;;;;;3.81;52.16;101033.11;107139;1250;72350;-85
2023/02/24 12:39:31;;;;;;;12.60;7.40;;;;;;;3.74;52.58;101027.23;106914;1254;59631;-87
2023/02/24 12:42:17;;;;;;;15.10;7.50;;;;;;;3.65;53.03;101023.31;107109;1250;60025;-86
2023/02/24 12:45:20;;;;;;;11.40;7.10;;;;;;;3.52;53.53;101023.95;106856;1251;74018;-85
2023/02/24 12:47:49;;;;;;;18.10;8.90;;;;;;;3.48;54.33;101020.41;106457;1254;64355;-84
2023/02/24 12:50:27;;;;;;;10.50;6.10;;;;;;;3.49;54.70;101018.86;107435;1250;72339;-86
2023/02/24 12:53:22;;;;;;;12.50;6.70;;;;;;;3.45;55.08;101013.06;106951;1256;60389;-86
2023/02/24 12:55:57;;;;;;;8.80;5.80;;;;;;;3.36;55.14;101015.36;106856;1250;59753;-87
2023/02/24 12:58:39;;;;;;;15.40;6.70;;;;;;;3.29;55.60;101014.84;107035;1250;72970;-87
2023/02/24 13:01:26;;;;;;;10.60;6.40;;;;;;;3.25;55.79;101003.19;107206;1255;66948;-86
2023/02/24 13:04:40;;;;;;;8.90;6.10;;;;;;;3.22;55.78;100999.27;108475;1250;73293;-85
2023/02/24 13:07:27;;;;;;;9.60;6.40;;;;;;;3.19;56.21;100991.23;107018;1254;60255;-88
2023/02/24 13:10:05;;;;;;;8.70;5.80;;;;;;;3.15;56.22;100989.08;107567;1250;60287;-86
2023/02/24 13:12:51;;;;;;;9.90;6.30;;;;;;;3.12;56.51;100985.17;107536;1250;73909;-84
2023/02/24 13:15:47;;;;;;;10.90;7.10;;;;;;;3.11;56.68;100981.73;107507;1251;64029;-87
2023/02/24 13:18:45;;;;;;;10.60;6.00;;;;;;;3.11;56.52;100971.53;108340;1250;71942;-86
2023/02/24 13:21:13;;;;;;;12.10;7.60;;;;;;;3.08;56.56;100967.47;106807;1256;60694;-86
2023/02/24 13:23:53;;;;;;;13.70;7.70;;;;;;;3.05;56.75;100965.64;107227;1249;60032;-86
2023/02/24 13:26:26;;;;;;;9.60;6.50;;;;;;;3.05;56.75;100967.89;107099;1251;71797;-86
2023/02/24 13:29:12;;;;;;;22.60;9.00;;;;;;;3.08;56.95;100959.86;106984;1252;65058;-85
2023/02/24 13:31:48;;;;;;;11.90;8.00;;;;;;;3.10;56.93;100956.54;107142;1250;72675;-88
2023/02/24 13:34:30;;;;;;;17.70;10.40;;;;;;;3.11;57.02;100952.36;107257;1258;60630;-87
2023/02/24 13:36:59;;;;;;;13.30;6.50;;;;;;;3.11;57.25;100947.17;107534;1250;60272;-86
2023/02/24 13:39:36;;;;;;;15.00;8.60;;;;;;;3.11;57.27;100941.83;107693;1250;73048;-87
2023/02/24 13:42:17;;;;;;;15.30;7.70;;;;;;;3.10;57.45;100937.02;107209;1256;64813;-85
2023/02/24 13:45:01;;;;;;;9.50;6.40;;;;;;;3.10;57.48;100939.95;107440;1250;73696;-85
2023/02/24 13:47:43;;;;;;;9.30;5.60;;;;;;;3.09;57.50;100938.42;107182;1258;60566;-86
2023/02/24 13:50:24;;;;;;;11.40;6.30;;;;;;;3.09;57.63;100932.38;107957;1250;59242;-85
2023/02/24 13:53:44;;;;;;;12.40;6.40;;;;;;;3.08;57.73;100926.86;107476;1250;73006;-86
2023/02/24 13:56:34;;;;;;;10.90;6.70;;;;;;;3.07;57.76;100928.79;107572;1250;64417;-86
2023/02/24 13:59:25;;;;;;;12.50;7.40;;;;;;;3.09;57.97;100924.95;106967;1256;72702;-85
2023/02/24 14:01:59;;;;;;;12.50;7.70;;;;;;;3.13;57.82;100920.71;107027;1253;60192;-87
2023/02/24 14:04:32;;;;;;;15.00;9.00;;;;;;;3.16;57.84;100915.96;106954;1250;60457;-86
2023/02/24 14:07:08;;;;;;;14.20;9.10;;;;;;;3.21;57.84;100909.46;106866;1251;72994;-86
2023/02/24 14:09:47;;;;;;;15.50;8.50;;;;;;;3.24;57.82;100908.34;107064;1256;63757;-86
2023/02/24 14:12:20;;;;;;;14.20;8.60;;;;;;;3.27;57.69;100907.75;107197;1253;72588;-85
2023/02/24 14:14:52;;;;;;;20.70;9.60;;;;;;;3.29;57.84;100904.25;107475;1250;59665;-87
2023/02/24 14:17:27;;;;;;;15.00;9.70;;;;;;;3.29;57.83;100899.58;107159;1250;61114;-85
2023/02/24 14:20:05;;;;;;;13.50;8.30;;;;;;;3.27;57.80;100896.52;107042;1253;72982;-85
2023/02/24 14:22:42;;;;;;;14.40;7.90;;;;;;;3.24;57.80;100890.02;106605;1256;63893;-86
2023/02/24 14:25:11;;;;;;;15.50;8.90;;;;;;;3.22;57.96;100890.08;107377;1254;73666;-85
2023/02/24 14:27:51;;;;;;;19.50;10.60;;;;;;;3.19;57.92;100883.58;106868;1250;59730;-86
2023/02/24 14:30:36;;;;;;;29.10;13.40;;;;;;;3.17;58.09;100881.92;106927;1251;60328;-86
2023/02/24 14:33:07;;;;;;;12.40;7.40;;;;;;;3.13;58.10;100881.85;106856;1256;73884;-86
2023/02/24 14:35:41;;;;;;;13.60;8.80;;;;;;;3.08;58.31;100880.58;106779;1258;63784;-86
2023/02/24 14:38:35;;;;;;;;;;;;;;;3.06;58.57;100874.60;107036;1250;71558;-86
2023/02/24 14:41:05;;;;;;;12.00;7.40;;;;;;;3.05;58.73;100870.98;106895;1251;59736;-85
2023/02/24 14:43:40;;;;;;;11.70;6.80;;;;;;;3.05;58.83;100870.11;107728;1250;61012;-84
2023/02/24 14:46:09;;;;;;;14.20;7.70;;;;;;;3.04;58.73;100865.81;107206;1249;73175;-88
2023/02/24 14:48:37;;;;;;;11.60;7.60;;;;;;;3.04;58.76;100869.46;107093;1250;64807;-85
2023/02/24 14:51:20;;;;;;;13.40;8.50;;;;;;;3.01;58.66;100865.55;106930;1254;73880;-87
2023/02/24 14:53:55;;;;;;;10.90;7.60;;;;;;;2.94;58.70;100863.65;107018;1250;59637;-86
2023/02/24 14:56:28;;;;;;;;;;;;;;;2.88;58.80;100857.58;107108;1251;61310;-86
2023/02/24 14:59:01;;;;;;;13.10;8.70;;;;;;;2.83;58.78;100856.66;107080;1252;72175;-86
2023/02/24 15:01:32;;;;;;;11.10;7.70;;;;;;;2.79;58.87;100856.93;106982;1251;63822;-85
2023/02/24 15:04:28;;;;;;;15.50;8.90;;;;;;;2.73;58.86;100852.09;106982;1256;73646;-86
2023/02/24 15:06:57;;;;;;;12.10;8.00;;;;;;;2.66;58.99;100846.21;108756;1250;60318;-86
2023/02/24 15:09:33;;;;;;;15.90;7.80;;;;;;;2.60;59.08;100844.95;109548;1250;60380;-85
2023/02/24 15:12:11;;;;;;;16.10;7.80;;;;;;;2.55;59.25;100840.93;109798;1250;72766;-84
2023/02/24 15:14:52;;;;;;;17.60;11.00;;;;;;;2.50;59.51;100845.71;108046;1253;63981;-85
2023/02/24 15:17:22;;;;;;;10.80;8.30;;;;;;;2.45;59.54;100837.01;108358;1251;74492;-87
2023/02/24 15:19:54;;;;;;;15.40;9.20;;;;;;;2.43;59.76;100833.10;107589;1253;59548;-85
2023/02/24 15:22:32;;;;;;;10.70;7.40;;;;;;;2.43;59.88;100834.33;106580;1250;61365;-85
2023/02/24 15:25:20;;;;;;;11.20;7.10;;;;;;;2.39;59.89;100833.52;106642;1253;74003;-86
2023/02/24 15:28:03;;;;;;;13.00;6.60;;;;;;;2.35;60.08;100833.63;106637;1253;63540;-85
2023/02/24 15:30:35;;;;;;;12.20;7.70;;;;;;;2.30;59.97;100832.01;106602;1253;73498;-84
2023/02/24 15:33:21;;;;;;;12.90;7.50;;;;;;;2.24;59.89;100830.75;106458;1251;59758;-85
2023/02/24 15:35:53;;;;;;;12.20;6.90;;;;;;;2.19;59.93;100827.95;106403;1251;61050;-85
2023/02/24 15:38:31;;;;;;;12.90;7.70;;;;;;;2.17;59.96;100825.59;106665;1250;74071;-85
2023/02/24 15:41:03;;;;;;;15.30;8.90;;;;;;;2.15;59.95;100828.04;106313;1253;63527;-87
2023/02/24 15:43:33;;;;;;;14.70;8.20;;;;;;;2.12;59.93;100821.55;106423;1253;73570;-85
2023/02/24 15:46:15;;;;;;;12.80;8.40;;;;;;;2.06;60.16;100822.04;106449;1253;59721;-85
2023/02/24 15:48:51;;;;;;;16.10;9.00;;;;;;;2.01;60.40;100819.02;106096;1250;60727;-86
2023/02/24 15:51:27;;;;;;;18.10;9.20;;;;;;;1.97;60.56;100811.85;106492;1253;72676;-88
2023/02/24 15:54:01;;;;;;;13.80;7.60;;;;;;;1.95;60.57;100807.27;106305;1250;64402;-86
2023/02/24 15:56:31;;;;;;;15.30;8.50;;;;;;;1.91;60.42;100799.24;106531;1250;73677;-86
2023/02/24 15:59:01;;;;;;;12.90;9.10;;;;;;;1.85;60.20;100800.23;106536;1250;59756;-84
2023/02/24 16:01:31;;;;;;;11.60;7.90;;;;;;;1.80;60.02;100800.50;106328;1251;60478;-85
2023/02/24 16:04:00;;;;;;;10.90;7.40;;;;;;;1.75;59.83;100791.14;106360;1256;74261;-86
2023/02/24 16:06:34;;;;;;;12.80;7.70;;;;;;;1.70;59.78;100788.46;106488;1263;64774;-85
2023/02/24 16:09:04;;;;;;;13.60;8.70;;;;;;;1.67;59.67;100788.37;107783;1254;72398;-85
2023/02/24 16:11:34;;;;;;;16.20;9.70;;;;;;;1.63;59.64;100782.92;106722;1261;60517;-86
2023/02/24 16:14:05;;;;;;;13.80;8.30;;;;;;;1.60;59.79;100781.44;106565;1256;61546;-85
2023/02/24 16:16:36;;;;;;;14.60;10.20;;;;;;;1.58;60.26;100785.10;106422;1255;73975;-85
2023/02/24 16:19:09;;;;;;;16.20;10.90;;;;;;;1.57;60.86;100780.81;106170;1250;63470;-85
2023/02/24 16:21:39;;;;;;;13.90;9.50;;;;;;;1.53;61.38;100778.84;107115;1250;73865;-86
2023/02/24 16:24:08;;;;;;;14.20;9.40;;;;;;;1.51;61.95;100781.45;106539;1250;60542;-86
2023/02/24 16:26:38;;;;;;;12.70;8.90;;;;;;;1.49;62.23;100776.52;106780;1250;62139;-86
2023/02/24 16:29:12;;;;;;;12.60;8.80;;;;;;;1.45;62.11;100772.08;107122;1254;74808;-85
2023/02/24 16:31:49;;;;;;;15.60;9.60;;;;;;;1.42;61.97;100768.02;107660;1256;63822;-85
2023/02/24 16:34:18;;;;;;;17.00;9.80;;;;;;;1.37;61.65;100773.61;107454;1254;74474;-86
2023/02/24 16:36:48;;;;;;;16.00;10.90;;;;;;;1.34;61.34;100770.93;107549;1254;60431;-87
2023/02/24 16:39:18;;;;;;;15.00;8.30;;;;;;;1.31;61.11;100763.25;107235;1258;60339;-86
2023/02/24 16:41:46;;;;;;;14.00;7.90;;;;;;;1.29;60.82;100762.07;107354;1250;73766;-85
2023/02/24 16:44:15;;;;;;;9.80;7.90;;;;;;;1.27;60.59;100760.39;107517;1250;64663;-86
2023/02/24 16:46:45;;;;;;;12.60;8.00;;;;;;;1.26;60.58;100756.27;107447;1254;73924;-87
2023/02/24 16:49:21;;;;;;;13.40;8.00;;;;;;;1.25;60.32;100752.52;107459;1250;60508;-89
2023/02/24 16:51:50;;;;;;;16.90;9.80;;;;;;;1.25;60.37;100752.17;107393;1256;61197;-85
2023/02/24 16:54:20;;;;;;;11.50;7.20;;;;;;;1.23;60.25;100749.63;107577;1253;74122;-86
2023/02/24 16:56:56;;;;;;;12.60;7.30;;;;;;;1.20;60.19;100747.61;107799;1250;64827;-86
2023/02/24 16:59:39;;;;;;;10.30;7.30;;;;;;;1.16;59.92;100746.30;107422;1256;73207;-87
2023/02/24 17:02:20;;;;;;;14.20;7.80;;;;;;;1.16;59.89;100743.39;107560;1253;60536;-87
2023/02/24 17:04:51;;;;;;;13.80;8.00;;;;;;;1.15;59.84;100743.07;108025;1250;60327;-87
2023/02/24 17:07:38;;;;;;;13.60;7.70;;;;;;;1.13;59.72;100735.51;108306;1249;72381;-88
2023/02/24 17:10:11;;;;;;;11.50;7.80;;;;;;;1.12;59.67;100732.27;108108;1249;63982;-86
2023/02/24 17:12:42;;;;;;;13.00;7.20;;;;;;;1.11;59.65;100721.27;108215;1250;73639;-87
2023/02/24 17:15:24;;;;;;;13.30;8.30;;;;;;;1.08;59.28;100718.23;107949;1256;60651;-87
2023/02/24 17:17:53;;;;;;;14.80;8.20;;;;;;;1.04;59.42;100710.73;107287;1256;61300;-87
2023/02/24 17:20:22;;;;;;;10.80;7.20;;;;;;;1.02;59.35;100705.77;106755;1252;74851;-86
2023/02/24 17:22:52;;;;;;;17.70;8.40;;;;;;;1.02;59.15;100702.84;106420;1256;64851;-87
2023/02/24 17:25:25;;;;;;;11.20;7.40;;;;;;;0.99;59.15;100699.80;106081;1258;73676;-87
2023/02/24 17:27:55;;;;;;;14.40;7.10;;;;;;;0.96;59.20;100697.29;106574;1253;60307;-88
2023/02/24 17:30:26;;;;;;;20.00;9.00;;;;;;;0.93;59.11;100688.73;106395;1254;61317;-87
2023/02/24 17:32:55;;;;;;;14.20;7.90;;;;;;;0.91;58.93;100689.13;107559;1249;73463;-86
2023/02/24 17:35:23;;;;;;;15.70;7.90;;;;;;;0.87;58.98;100685.58;107445;1251;63465;-88
2023/02/24 17:37:54;;;;;;;15.00;7.20;;;;;;;0.85;58.87;100680.79;106714;1253;73621;-88
2023/02/24 17:40:23;;;;;;;12.60;7.50;;;;;;;0.84;58.52;100682.88;106586;1254;60382;-87
2023/02/24 17:42:51;;;;;;;11.10;7.50;;;;;;;0.81;58.40;100685.67;106455;1256;60337;-87
2023/02/24 17:45:21;;;;;;;12.40;6.80;;;;;;;0.80;58.28;100693.45;106690;1258;74250;-87
2023/02/24 17:48:01;;;;;;;10.20;6.90;;;;;;;0.80;58.30;100694.82;108963;1250;64615;-87
2023/02/24 17:50:31;;;;;;;12.30;7.30;;;;;;;0.78;58.02;100690.73;109579;1250;72618;-87
2023/02/24 17:53:00;;;;;;;14.40;9.30;;;;;;;0.77;58.02;100690.59;108766;1249;60410;-86
2023/02/24 17:55:29;;;;;;;15.10;7.90;;;;;;;0.76;57.86;100688.19;109248;1251;60252;-87
2023/02/24 17:57:58;;;;;;;11.80;7.10;;;;;;;0.76;57.43;100688.54;109860;1249;73769;-87
2023/02/24 18:00:29;;;;;;;11.40;6.90;;;;;;;0.76;57.29;100688.19;109817;1255;63793;-86
2023/02/24 18:03:00;;;;;;;9.90;5.90;;;;;;;0.76;57.05;100684.41;109541;1251;73138;-87
2023/02/24 18:05:32;;;;;;;11.00;6.50;;;;;;;0.76;56.87;100679.08;108660;1249;60312;-88
2023/02/24 18:08:04;;;;;;;12.60;6.40;;;;;;;0.76;56.85;100679.59;108719;1252;61051;-88
2023/02/24 18:10:33;;;;;;;10.60;5.30;;;;;;;0.75;56.63;100679.42;108471;1249;73658;-87
2023/02/24 18:13:01;;;;;;;8.80;5.80;;;;;;;0.74;56.52;100677.04;108258;1249;63547;-86
2023/02/24 18:16:08;;;;;;;9.10;5.60;;;;;;;0.73;56.66;100675.34;109540;1251;72658;-87
2023/02/24 18:22:46;;;;;;;12.20;6.20;;;;;;;0.71;56.64;100665.23;108305;1254;59656;-87
2023/02/24 18:25:24;;;;;;;11.40;6.60;;;;;;;0.71;56.48;100670.40;108446;1254;73718;-86
2023/02/24 18:28:43;;;;;;;11.90;7.20;;;;;;;0.69;56.47;100667.86;109316;1256;62933;-87
2023/02/24 18:32:25;;;;;;;11.30;7.60;;;;;;;0.68;56.63;100665.13;109309;1255;71429;-86
2023/02/24 18:35:57;;;;;;;12.10;6.10;;;;;;;0.70;56.70;100662.83;108460;1262;58810;-87
2023/02/24 18:38:27;;;;;;;10.10;6.80;;;;;;;0.68;56.76;100661.16;107508;1264;60482;-87
2023/02/24 18:41:00;;;;;;;10.00;6.00;;;;;;;0.65;56.78;100659.15;106585;1264;74818;-86
2023/02/24 18:43:32;;;;;;;9.90;6.70;;;;;;;0.62;56.80;100658.86;106409;1267;64053;-89
2023/02/24 18:46:04;;;;;;;10.40;6.80;;;;;;;0.61;57.05;100652.34;106184;1263;72658;-88
2023/02/24 18:48:34;;;;;;;10.20;6.10;;;;;;;0.59;57.11;100652.36;106487;1264;60474;-86
2023/02/24 18:51:05;;;;;;;10.90;6.40;;;;;;;0.56;57.12;100652.94;106409;1266;62017;-88
2023/02/24 18:53:38;;;;;;;14.00;7.40;;;;;;;0.53;57.33;100648.52;106328;1266;73722;-88
2023/02/24 18:56:09;;;;;;;19.30;9.40;;;;;;;0.51;57.57;100649.27;106615;1261;63790;-89
2023/02/24 18:58:39;;;;;;;15.20;8.50;;;;;;;0.50;58.24;100645.33;107514;1260;72693;-87
2023/02/24 19:01:11;;;;;;;15.80;8.50;;;;;;;0.49;58.69;100645.34;106858;1259;60610;-88
2023/02/24 19:03:42;;;;;;;15.80;9.60;;;;;;;0.46;58.54;100645.21;106652;1261;60554;-86
2023/02/24 19:06:11;;;;;;;13.70;7.70;;;;;;;0.43;58.34;100644.59;106705;1261;74787;-89
2023/02/24 19:08:41;;;;;;;14.70;7.90;;;;;;;0.40;58.36;100638.95;106644;1258;64826;-87
2023/02/24 19:11:19;;;;;;;14.00;8.60;;;;;;;0.38;58.07;100637.64;106592;1262;74313;-88
2023/02/24 19:13:50;;;;;;;10.90;6.30;;;;;;;0.35;57.47;100636.30;107440;1251;60571;-87
2023/02/24 19:16:19;;;;;;;17.00;8.30;;;;;;;0.31;57.07;100632.93;107256;1251;60569;-87
2023/02/24 19:18:53;;;;;;;12.70;7.00;;;;;;;0.29;57.27;100632.10;107120;1256;74536;-87
2023/02/24 19:21:23;;;;;;;11.10;7.00;;;;;;;0.27;57.66;100632.65;106854;1257;64646;-86
2023/02/24 19:23:52;;;;;;;10.70;6.70;;;;;;;0.24;57.96;100630.81;107191;1256;72672;-86
2023/02/24 19:26:23;;;;;;;12.80;7.80;;;;;;;0.21;58.41;100629.14;107793;1251;60538;-86
2023/02/24 19:28:56;;;;;;;14.60;7.90;;;;;;;0.20;58.69;100627.10;107642;1251;61251;-86
2023/02/24 19:31:27;;;;;;;12.90;6.90;;;;;;;0.19;59.13;100628.14;107368;1251;74932;-86
2023/02/24 19:33:59;;;;;;;15.30;8.20;;;;;;;0.19;59.48;100623.32;107539;1251;64800;-86
2023/02/24 19:36:30;;;;;;;16.90;11.40;;;;;;;0.19;59.88;100623.67;108917;1251;71603;-86
2023/02/24 19:38:58;;;;;;;13.50;7.70;;;;;;;0.19;60.25;100618.70;109594;1251;58259;-87
2023/02/24 19:41:29;;;;;;;18.10;9.80;;;;;;;0.18;60.56;100612.02;109388;1254;59125;-85
2023/02/24 19:44:05;;;;;;;14.10;8.00;;;;;;;0.18;60.86;100613.88;109312;1255;74502;-86
2023/02/24 19:46:54;;;;;;;14.40;8.50;;;;;;;0.17;61.05;100613.74;109414;1255;65406;-87
2023/02/24 19:49:22;;;;;;;15.80;9.80;;;;;;;0.18;61.52;100608.58;109186;1255;71414;-85
2023/02/24 19:52:13;;;;;;;13.90;8.50;;;;;;;0.18;61.88;100610.45;109477;1255;59299;-87
2023/02/24 19:54:47;;;;;;;16.60;9.10;;;;;;;0.19;62.41;100609.05;109355;1255;60337;-88
2023/02/24 19:57:18;;;;;;;16.00;8.70;;;;;;;0.21;62.55;100608.52;109053;1255;73476;-86
2023/02/24 19:59:50;;;;;;;16.90;10.10;;;;;;;0.22;62.78;100604.89;109030;1255;63780;-89
2023/02/24 20:02:19;;;;;;;13.60;9.00;;;;;;;0.23;62.93;100602.81;108639;1255;72670;-86
2023/02/24 20:04:47;;;;;;;16.70;9.20;;;;;;;0.26;63.05;100600.36;108318;1255;59309;-89
2023/02/24 20:07:21;;;;;;;18.90;10.50;;;;;;;0.27;63.21;100598.95;108039;1256;61637;-85
2023/02/24 20:09:50;;;;;;;20.10;9.60;;;;;;;0.26;63.32;100596.55;108720;1255;73814;-87
2023/02/24 20:12:20;;;;;;;17.40;9.70;;;;;;;0.27;63.40;100598.77;107426;1255;62943;-86
2023/02/24 20:14:49;;;;;;;14.60;9.00;;;;;;;0.30;63.48;100599.25;106883;1255;72689;-86
2023/02/24 20:17:19;;;;;;;12.60;8.40;;;;;;;0.32;63.57;100600.59;107012;1255;60845;-87
2023/02/24 20:19:48;;;;;;;15.70;9.60;;;;;;;0.36;63.59;100593.79;106821;1255;60584;-86
2023/02/24 20:22:16;;;;;;;13.90;9.30;;;;;;;0.40;63.78;100594.23;107762;1255;73759;-85
2023/02/24 20:24:46;;;;;;;15.90;10.20;;;;;;;0.46;63.69;100593.95;107336;1255;63760;-88
2023/02/24 20:27:19;;;;;;;20.10;11.00;;;;;;;0.52;63.66;100590.93;106640;1255;73267;-86
2023/02/24 20:29:48;;;;;;;20.40;10.60;;;;;;;0.54;63.65;100589.16;106805;1257;60321;-85
2023/02/24 20:32:18;;;;;;;17.50;10.00;;;;;;;0.56;63.59;100586.89;106459;1255;62044;-87
2023/02/24 20:34:48;;;;;;;20.60;11.80;;;;;;;0.57;63.52;100587.22;106155;1256;74774;-87
2023/02/24 20:37:17;;;;;;;17.80;10.80;;;;;;;0.56;63.68;100585.86;106599;1259;64532;-86
2023/02/24 20:39:46;;;;;;;16.50;10.20;;;;;;;0.52;63.87;100582.67;106649;1256;73356;-87
2023/02/24 20:42:19;;;;;;;18.80;11.00;;;;;;;0.50;64.13;100579.27;106706;1255;60560;-86
2023/02/24 20:44:48;;;;;;;17.80;11.20;;;;;;;0.48;64.12;100576.40;106862;1255;60054;-86
2023/02/24 20:47:16;;;;;;;16.50;9.10;;;;;;;0.45;64.32;100576.10;106767;1256;74810;-86
2023/02/24 20:49:46;;;;;;;16.70;10.60;;;;;;;0.42;64.55;100573.41;107365;1255;65090;-87
2023/02/24 20:52:15;;;;;;;18.50;11.30;;;;;;;0.38;64.49;100570.89;106968;1256;72404;-87
2023/02/24 20:54:44;;;;;;;17.90;11.00;;;;;;;0.35;64.86;100570.95;106980;1255;59641;-88
2023/02/24 20:57:14;;;;;;;24.70;12.40;;;;;;;0.34;64.95;100564.95;107222;1255;60284;-87
2023/02/24 20:59:43;;;;;;;23.50;12.30;;;;;;;0.37;65.01;100557.01;106695;1256;74457;-87
2023/02/24 21:02:30;;;;;;;16.90;11.20;;;;;;;0.40;65.25;100558.48;107283;1260;64926;-87
2023/02/24 21:04:59;;;;;;;17.60;10.60;;;;;;;0.42;65.53;100555.17;107119;1255;72495;-87
2023/02/24 21:07:28;;;;;;;20.90;11.50;;;;;;;0.46;65.59;100548.38;107040;1255;60554;-88
2023/02/24 21:10:00;;;;;;;24.60;12.80;;;;;;;0.51;65.55;100547.61;106781;1263;60056;-87
2023/02/24 21:12:29;;;;;;;22.70;12.50;;;;;;;0.55;65.53;100542.02;106793;1260;73661;-87
2023/02/24 21:14:58;;;;;;;20.90;11.30;;;;;;;0.56;65.47;100539.08;106758;1255;64103;-86
2023/02/24 21:17:34;;;;;;;21.10;12.30;;;;;;;0.56;65.43;100536.33;106986;1255;72362;-88
2023/02/24 21:20:04;;;;;;;24.30;14.10;;;;;;;0.54;65.57;100526.89;106888;1258;60584;-87
2023/02/24 21:22:32;;;;;;;21.00;12.70;;;;;;;0.51;65.65;100524.90;107089;1258;60526;-87
2023/02/24 21:25:03;;;;;;;25.60;14.70;;;;;;;0.49;65.89;100518.59;107197;1261;74756;-89
2023/02/24 21:27:32;;;;;;;23.30;14.70;;;;;;;0.47;66.15;100520.35;107235;1258;63515;-85
2023/02/24 21:30:00;;;;;;;45.90;21.30;;;;;;;0.45;66.34;100510.40;108975;1257;72676;-86
2023/02/24 21:32:28;;;;;;;20.50;12.10;;;;;;;0.45;66.62;100506.46;109040;1258;59270;-86
2023/02/24 21:34:57;;;;;;;21.60;12.40;;;;;;;0.44;66.93;100501.64;108512;1258;60354;-86
2023/02/24 21:37:25;;;;;;;24.70;13.40;;;;;;;0.45;67.05;100495.79;107943;1258;73822;-84
2023/02/24 21:39:53;;;;;;;23.40;12.40;;;;;;;0.46;67.37;100492.48;108421;1258;63691;-84
2023/02/24 21:42:22;;;;;;;19.20;12.50;;;;;;;0.50;67.60;100488.80;108414;1258;72614;-86
2023/02/24 21:44:50;;;;;;;22.40;11.80;;;;;;;0.55;67.60;100491.45;109190;1258;60241;-85
2023/02/24 21:47:19;;;;;;;20.30;11.90;;;;;;;0.59;67.68;100490.33;108770;1258;60690;-86
2023/02/24 21:49:48;;;;;;;20.30;12.90;;;;;;;0.65;67.70;100480.23;107944;1258;73814;-87
2023/02/24 21:52:18;;;;;;;17.20;11.00;;;;;;;0.69;67.70;100479.12;108062;1255;62668;-84
2023/02/24 21:54:48;;;;;;;24.70;13.50;;;;;;;0.71;67.68;100475.62;107365;1255;72616;-84
2023/02/24 21:57:18;;;;;;;17.60;11.40;;;;;;;0.73;67.74;100474.37;107618;1255;60563;-84
2023/02/24 21:59:46;;;;;;;22.80;13.40;;;;;;;0.74;67.87;100476.77;107266;1255;60426;-85
2023/02/24 22:02:15;;;;;;;23.00;12.50;;;;;;;0.75;67.86;100475.70;107192;1260;73833;-86
2023/02/24 22:04:44;;;;;;;22.20;12.60;;;;;;;0.75;68.03;100475.70;107159;1255;63586;-84
2023/02/24 22:07:19;;;;;;;;;;;;;;;0.74;68.10;100473.33;106816;1256;73874;-85
2023/02/24 22:09:48;;;;;;;24.20;11.40;;;;;;;0.75;68.27;100471.23;106789;1257;60445;-86
2023/02/24 22:12:19;;;;;;;20.60;13.40;;;;;;;0.77;68.38;100473.77;106859;1260;61333;-85
2023/02/24 22:14:49;;;;;;;22.40;12.40;;;;;;;0.80;68.48;100471.80;107105;1258;74874;-84
2023/02/24 22:17:30;;;;;;;23.40;12.70;;;;;;;0.83;68.59;100469.52;106765;1260;63917;-86
2023/02/24 22:20:06;;;;;;;21.90;11.80;;;;;;;0.87;68.87;100464.95;106898;1255;72680;-85
2023/02/24 22:22:36;;;;;;;21.50;12.00;;;;;;;0.91;68.95;100461.41;106695;1260;62207;-85
2023/02/24 22:25:05;;;;;;;21.20;12.30;;;;;;;0.96;69.16;100453.73;108660;1255;60314;-83
2023/02/24 22:27:37;;;;;;;18.50;10.80;;;;;;;1.02;69.20;100449.45;107237;1258;75188;-84
2023/02/24 22:30:07;;;;;;;22.50;12.40;;;;;;;1.07;69.18;100447.12;107946;1255;63797;-83
2023/02/24 22:32:36;;;;;;;19.00;11.80;;;;;;;1.10;69.11;100443.25;108298;1256;72605;-86
2023/02/24 22:35:05;;;;;;;17.60;11.40;;;;;;;1.13;68.99;100436.81;107346;1255;60518;-84
2023/02/24 22:37:36;;;;;;;22.30;12.10;;;;;;;1.15;68.95;100427.98;106355;1260;60322;-84
2023/02/24 22:40:05;;;;;;;24.50;11.80;;;;;;;1.16;69.02;100423.13;106198;1260;74788;-85
2023/02/24 22:42:34;;;;;;;21.00;12.30;;;;;;;1.15;69.28;100420.73;105924;1256;64511;-84
2023/02/24 22:45:03;;;;;;;25.10;12.60;;;;;;;1.12;69.45;100417.02;106205;1255;73328;-85
2023/02/24 22:47:31;;;;;;;25.20;12.90;;;;;;;1.10;69.65;100415.71;106284;1255;60495;-85
2023/02/24 22:50:00;;;;;;;23.60;11.80;;;;;;;1.08;69.84;100415.57;106245;1256;60429;-83
2023/02/24 22:52:28;;;;;;;18.90;10.90;;;;;;;1.11;69.79;100411.21;106336;1256;73351;-84
2023/02/24 22:54:57;;;;;;;17.40;11.10;;;;;;;1.15;69.92;100415.08;106252;1260;64668;-83
2023/02/24 22:57:26;;;;;;;17.90;11.00;;;;;;;1.20;70.07;100409.61;106191;1260;73740;-83
2023/02/24 22:59:54;;;;;;;20.30;10.60;;;;;;;1.25;70.25;100417.39;106300;1256;60561;-83
2023/02/24 23:02:24;;;;;;;17.30;11.20;;;;;;;1.30;70.28;100401.09;106382;1255;60453;-85
2023/02/24 23:04:54;;;;;;;28.90;12.10;;;;;;;1.35;70.33;100396.15;106171;1256;74867;-84
2023/02/24 23:07:23;;;;;;;19.20;10.50;;;;;;;1.39;70.33;100388.11;106119;1259;63804;-84
2023/02/24 23:09:51;;;;;;;22.70;11.60;;;;;;;1.42;70.39;100384.41;106592;1255;72630;-81